West Wardsboro, VT (05360)

12:43 AM EST on February 01, 2015 (GMT -0500)
Stratton Mountain | Change Station
CLOSE
Current Station
Personal Weather Station
Location: Stratton, VT
Elevation: 3159 ft
Nearby Weather Stations
Active Advisory: Winter Storm Warning

Elev 3159 ft 43.10 °N, 72.92 °W | Updated 3 minutes ago

Mostly Cloudy
Mostly Cloudy
-0.2 °F
Feels Like -21 °F
N
18.0
Wind Variable Wind from ENE

Today
High -- | Low -- °F
--% Chance of Precip.
Yesterday
High -- | Low -- °F
Precip. -- in
7:07 AM 5:03 PM
Waxing Gibbous, 93% visible
Pressure 30.16 in
Visibility 10.0 miles
Clouds Overcast 7000 ft
Windchill -21 °F
Dew Point -21 °F
Humidity 35%
Rainfall 0.00 in
Snow Depth Not available.
UV 0 out of 12
Pollen .10 out of 12
Air Quality Not available.
Flu Activity Not available.
METAR KDDH 010454Z AUTO 00000KT 10SM OVC070 M18/M21 A3010 RMK AO2 SLP213 T11781206 411171239

More Conditions Fewer Conditions

Pressure 30.16 in
Visibility 10.0 miles
Clouds Overcast 7000 ft
Windchill -21 °F
Dew Point -21 °F
Humidity 35%
Rainfall 0.00 in
Snow Depth Not available.
UV 0 out of 12
Pollen .10 out of 12
Air Quality Not available.
Flu Activity Not available.
METAR KDDH 010454Z AUTO 00000KT 10SM OVC070 M18/M21 A3010 RMK AO2 SLP213 T11781206 411171239

More Conditions Fewer Conditions

10-Day Weather Forecast

Almanac

Astronomy

Feb. 01, 2015 Rise Set
Actual Time
Civil Twilight
Nautical Twilight
Astronomical Twilight
Moon
Length of Visible Light
Length of Day
Tomorrow will be .
, % of the Moon is Illuminated

Today's Extremes

State Highs State Lows

Community

WunderPhotos

Upload Photos

1,792,316 photos uploaded!

WunderBlogs® & News

Nearby

Air Quality

  Air Quality AQ Index Pollutant
Not available.

Snow Depth

Station Depth Elevation

Earthquake Activity

City Distance Mag. Time & Date
Minimum magnitude displayed is 2.5.

Coastal Water Temperatures

Place Temperature

Nearby Weather Stations